Time;durP1;ratioP1;P1;durP2;ratioP2;P2;SDS_P1;SDS_P2;PMS_P1;PMS_P2;Temp;Humidity;BMP_temperature;BMP_pressure;BME280_temperature;BME280_humidity;BME280_pressure;Samples;Min_cycle;Max_cycle;Signal;HPM_P1;HPM_P2
2022/11/12 00:00:39;;;;;;;8.60;4.43;;;15.30;74.40;;;;;;5043422;28;20056;-84
2022/11/12 00:03:42;;;;;;;7.85;4.40;;;15.30;74.40;;;;;;5044336;28;20072;-84
2022/11/12 00:06:46;;;;;;;7.25;4.47;;;15.20;74.30;;;;;;5040915;28;20090;-84
2022/11/12 00:09:49;;;;;;;7.63;5.13;;;15.10;74.20;;;;;;5043851;28;20579;-84
2022/11/12 00:12:52;;;;;;;9.07;5.35;;;15.10;74.30;;;;;;5039222;28;20068;-83
2022/11/12 00:15:56;;;;;;;6.38;4.00;;;15.00;74.20;;;;;;5036750;28;20055;-84
2022/11/12 00:18:59;;;;;;;;;;;14.90;74.10;;;;;;5043880;28;20047;-83
2022/11/12 00:22:02;;;;;;;6.38;4.38;;;14.90;74.20;;;;;;5043343;28;20054;-83
2022/11/12 00:25:06;;;;;;;8.30;5.13;;;14.80;74.10;;;;;;5040364;28;20143;-82
2022/11/12 00:28:10;;;;;;;7.97;4.65;;;14.70;74.00;;;;;;5038373;28;20447;-85
2022/11/12 00:31:13;;;;;;;;;;;14.70;74.10;;;;;;5044696;28;20159;-83
2022/11/12 00:34:16;;;;;;;9.90;5.75;;;14.60;74.00;;;;;;5037030;28;20015;-85
2022/11/12 00:37:21;;;;;;;;;;;14.60;74.10;;;;;;5043642;28;20565;-84
2022/11/12 00:40:25;;;;;;;9.13;4.93;;;14.50;74.00;;;;;;5038084;28;19936;-82
2022/11/12 00:43:28;;;;;;;;;;;14.50;74.10;;;;;;5040760;28;20499;-82
2022/11/12 00:46:31;;;;;;;7.95;4.32;;;14.40;74.00;;;;;;5037148;28;19920;-83
2022/11/12 00:49:34;;;;;;;6.82;4.40;;;14.40;74.00;;;;;;5043360;28;20074;-83
2022/11/12 00:52:38;;;;;;;8.07;4.72;;;14.30;73.90;;;;;;5043626;28;20036;-82
2022/11/12 00:55:40;;;;;;;6.38;5.45;;;14.30;74.00;;;;;;5043329;28;20070;-86
2022/11/12 00:58:43;;;;;;;7.68;5.03;;;14.20;73.90;;;;;;5043276;28;20036;-86
2022/11/12 01:01:47;;;;;;;;;;;14.20;74.00;;;;;;5030880;28;20062;-84
2022/11/12 01:04:50;;;;;;;8.15;4.82;;;14.20;74.10;;;;;;5043899;28;19947;-85
2022/11/12 01:07:53;;;;;;;7.00;4.65;;;14.10;73.90;;;;;;5041200;28;20045;-83
2022/11/12 01:11:07;;;;;;;8.73;5.07;;;14.10;74.00;;;;;;5039107;28;20068;-83
2022/11/12 01:14:10;;;;;;;;;;;14.00;73.90;;;;;;5044092;28;20199;-84
2022/11/12 01:17:13;;;;;;;6.57;4.43;;;14.00;74.00;;;;;;5037172;28;19919;-84
2022/11/12 01:20:17;;;;;;;9.02;4.68;;;14.00;73.90;;;;;;5042408;28;20056;-83
2022/11/12 01:23:20;;;;;;;7.43;5.57;;;14.00;74.00;;;;;;5043182;28;20060;-84
2022/11/12 01:26:23;;;;;;;7.35;4.30;;;14.00;74.10;;;;;;5043129;28;20040;-82
2022/11/12 01:29:27;;;;;;;5.85;4.43;;;13.90;74.00;;;;;;5042342;28;20064;-82
2022/11/12 01:32:33;;;;;;;;;;;13.90;74.00;;;;;;5044079;28;20674;-82
2022/11/12 01:35:36;;;;;;;6.13;5.50;;;13.90;74.00;;;;;;5039890;28;20478;-82
2022/11/12 01:38:40;;;;;;;10.83;4.87;;;13.90;73.90;;;;;;5039576;28;20048;-82
2022/11/12 01:41:44;;;;;;;7.57;4.93;;;13.90;74.00;;;;;;5042786;28;20345;-81
2022/11/12 01:44:47;;;;;;;9.10;4.75;;;13.90;74.00;;;;;;5039844;28;20110;-83
2022/11/12 01:47:51;;;;;;;9.35;5.50;;;13.90;74.10;;;;;;5042369;28;20072;-82
2022/11/12 01:50:55;;;;;;;4.97;4.10;;;14.00;74.30;;;;;;5042744;28;20140;-82
2022/11/12 01:54:03;;;;;;;6.22;4.57;;;14.00;74.30;;;;;;5042493;28;20048;-82
2022/11/12 01:57:11;;;;;;;6.30;4.28;;;14.00;74.30;;;;;;5047163;28;20633;-83
2022/11/12 02:00:15;;;;;;;5.57;4.13;;;14.00;74.30;;;;;;5046869;28;20510;-85
2022/11/12 02:03:21;;;;;;;6.00;4.63;;;14.00;74.30;;;;;;5038810;28;20048;-85
2022/11/12 02:06:25;;;;;;;5.95;4.80;;;13.90;74.10;;;;;;5047816;28;20080;-89
2022/11/12 02:09:29;;;;;;;5.05;4.40;;;14.00;74.30;;;;;;5042836;28;20048;-83
2022/11/12 02:15:56;;;;;;;6.75;4.75;;;14.00;74.80;;;;;;5046570;28;20090;-81
2022/11/12 02:19:00;;;;;;;6.45;4.10;;;13.90;74.20;;;;;;5040794;28;20152;-82
2022/11/12 02:22:04;;;;;;;11.52;4.65;;;13.90;74.20;;;;;;5040831;28;20140;-81
2022/11/12 02:25:13;;;;;;;6.78;4.38;;;13.90;74.20;;;;;;5045714;28;20044;-81
2022/11/12 02:28:16;;;;;;;5.72;4.65;;;13.90;74.20;;;;;;5037107;28;20071;-82
2022/11/12 02:31:20;;;;;;;6.80;4.30;;;13.90;74.20;;;;;;5041739;28;20416;-83
2022/11/12 02:34:23;;;;;;;5.10;3.92;;;13.90;74.30;;;;;;5049474;28;20083;-82
2022/11/12 02:37:26;;;;;;;5.65;3.85;;;13.90;74.30;;;;;;5050992;28;20083;-83
2022/11/12 02:40:29;;;;;;;5.72;3.65;;;13.90;74.30;;;;;;5050650;28;20047;-84
2022/11/12 02:43:32;;;;;;;7.25;4.13;;;13.90;74.30;;;;;;5057268;28;20091;-83
2022/11/12 02:46:36;;;;;;;4.95;3.97;;;13.90;74.30;;;;;;5056186;28;20117;-83
2022/11/12 02:49:39;;;;;;;6.72;4.55;;;13.80;74.10;;;;;;5053619;28;20448;-83
2022/11/12 02:52:42;;;;;;;;;;;13.90;74.30;;;;;;5055231;28;20110;-89
2022/11/12 02:55:45;;;;;;;6.50;3.83;;;13.90;74.30;;;;;;5054743;28;19915;-91
2022/11/12 02:58:49;;;;;;;4.95;3.83;;;13.90;74.20;;;;;;5035239;28;20092;-86
2022/11/12 03:01:52;;;;;;;4.78;3.30;;;13.90;74.20;;;;;;5031467;28;20036;-87
2022/11/12 03:04:55;;;;;;;6.57;3.75;;;13.90;74.20;;;;;;5046830;28;20538;-86
2022/11/12 03:07:59;;;;;;;6.15;3.55;;;13.90;74.10;;;;;;5050084;28;20388;-86
2022/11/12 03:11:12;;;;;;;6.63;4.40;;;13.90;74.20;;;;;;5050026;28;20443;-86
2022/11/12 03:14:15;;;;;;;4.40;3.15;;;13.90;74.10;;;;;;5049861;28;20079;-84
2022/11/12 03:17:18;;;;;;;;;;;13.90;74.10;;;;;;5030866;28;20068;-85
2022/11/12 03:20:22;;;;;;;5.28;3.42;;;13.90;74.10;;;;;;5022276;28;20016;-83
2022/11/12 03:23:25;;;;;;;3.67;3.22;;;13.90;73.90;;;;;;5029412;28;20079;-84
2022/11/12 03:26:28;;;;;;;4.63;3.00;;;14.00;74.20;;;;;;5030242;28;20397;-83
2022/11/12 03:29:32;;;;;;;5.53;3.97;;;13.90;74.00;;;;;;5029374;28;20048;-83
2022/11/12 03:32:35;;;;;;;4.68;3.20;;;14.00;74.20;;;;;;5029046;28;20072;-85
2022/11/12 03:35:39;;;;;;;4.53;3.33;;;14.00;74.20;;;;;;5046835;28;20040;-84
2022/11/12 03:38:42;;;;;;;6.10;3.45;;;13.90;73.90;;;;;;5042109;28;20048;-82
2022/11/12 03:41:45;;;;;;;6.25;4.35;;;13.90;73.90;;;;;;5047807;28;20514;-83
2022/11/12 03:44:48;;;;;;;4.85;3.17;;;13.90;74.00;;;;;;5033319;28;20048;-82
2022/11/12 03:47:54;;;;;;;3.83;3.35;;;13.90;74.00;;;;;;5029753;28;20056;-82
2022/11/12 03:50:58;;;;;;;4.45;2.95;;;13.90;74.00;;;;;;5031231;28;20456;-83
2022/11/12 03:54:02;;;;;;;4.32;3.00;;;13.90;74.10;;;;;;5028554;28;20770;-82
2022/11/12 03:57:05;;;;;;;4.53;3.47;;;13.80;73.90;;;;;;5044234;28;20066;-83
2022/11/12 04:00:10;;;;;;;4.05;3.22;;;13.90;74.10;;;;;;5048313;28;20063;-82
2022/11/12 04:03:13;;;;;;;6.63;2.92;;;13.90;74.10;;;;;;5047994;28;20097;-83
2022/11/12 04:09:39;;;;;;;5.85;4.20;;;13.80;73.80;;;;;;5047171;28;19947;-84
2022/11/12 04:23:21;;;;;;;4.25;3.15;;;13.70;73.70;;;;;;4960272;28;20540;-84
2022/11/12 04:26:24;;;;;;;6.03;3.20;;;13.80;73.90;;;;;;4977025;28;20049;-84
2022/11/12 04:32:54;;;;;;;6.10;3.83;;;13.70;73.70;;;;;;5048624;28;20056;-83
2022/11/12 04:35:57;;;;;;;8.05;4.20;;;13.70;73.70;;;;;;5031334;28;20892;-83
2022/11/12 04:39:00;;;;;;;;;;;13.70;73.80;;;;;;5034078;28;20469;-83
2022/11/12 04:45:26;;;;;;;5.35;3.55;;;13.70;73.70;;;;;;5047406;28;20094;-82
2022/11/12 04:48:29;;;;;;;5.07;3.28;;;13.70;74.20;;;;;;5047257;28;20628;-87
2022/11/12 04:54:55;;;;;;;3.58;3.10;;;13.70;73.80;;;;;;5040798;28;20048;-83
2022/11/12 04:57:58;;;;;;;;;;;13.60;73.60;;;;;;5032022;28;20421;-87
2022/11/12 05:01:02;;;;;;;3.95;3.22;;;13.60;73.60;;;;;;5027783;28;19937;-85
2022/11/12 05:04:05;;;;;;;;;;;13.70;74.20;;;;;;5037732;28;20056;-86
2022/11/12 05:07:09;;;;;;;4.90;2.80;;;13.60;73.50;;;;;;5028127;28;19932;-85
2022/11/12 05:10:12;;;;;;;4.32;3.03;;;13.60;73.50;;;;;;5027392;28;20268;-85
2022/11/12 05:13:15;;;;;;;4.50;3.35;;;13.60;73.50;;;;;;5027263;28;20124;-86
2022/11/12 05:16:18;;;;;;;8.68;4.13;;;13.60;73.60;;;;;;5027486;28;20140;-85
2022/11/12 05:19:22;;;;;;;6.78;3.47;;;13.50;73.50;;;;;;5045661;28;20089;-86
2022/11/12 05:22:25;;;;;;;;;;;13.50;73.50;;;;;;5052109;28;20076;-87
2022/11/12 05:25:28;;;;;;;4.90;3.53;;;13.50;73.50;;;;;;5045180;28;19923;-86
2022/11/12 05:28:31;;;;;;;5.43;3.17;;;13.50;73.50;;;;;;5034799;28;20562;-84
2022/11/12 05:31:34;;;;;;;6.00;4.25;;;13.50;73.50;;;;;;5039005;28;20111;-87
2022/11/12 05:34:37;;;;;;;4.57;3.10;;;13.50;73.60;;;;;;5046749;28;20048;-86
2022/11/12 05:37:40;;;;;;;7.82;3.35;;;13.50;73.60;;;;;;5036085;28;20527;-88
2022/11/12 05:40:44;;;;;;;5.15;3.80;;;13.50;73.60;;;;;;5041028;28;20079;-87
2022/11/12 05:43:47;;;;;;;4.03;2.97;;;13.50;73.70;;;;;;5051581;28;20060;-86
2022/11/12 05:46:51;;;;;;;4.63;3.40;;;13.50;73.70;;;;;;5050638;28;20519;-81
2022/11/12 05:49:54;;;;;;;;;;;13.50;73.70;;;;;;5045040;28;20138;-85
2022/11/12 05:52:57;;;;;;;6.75;3.88;;;13.50;73.70;;;;;;5046698;28;19962;-86
2022/11/12 05:56:04;;;;;;;5.10;3.55;;;13.50;73.60;;;;;;5046184;28;20104;-86
2022/11/12 05:59:11;;;;;;;4.78;4.20;;;13.50;73.80;;;;;;5040309;28;20052;-86
2022/11/12 06:02:14;;;;;;;6.03;3.90;;;13.50;73.60;;;;;;5045442;28;20444;-85
2022/11/12 06:05:17;;;;;;;4.95;3.72;;;13.50;73.60;;;;;;5045041;28;20052;-86
2022/11/12 06:08:20;;;;;;;5.82;4.82;;;13.60;73.80;;;;;;5047007;28;20035;-86
2022/11/12 06:11:24;;;;;;;;;;;13.60;73.80;;;;;;5042975;28;20131;-86
2022/11/12 06:14:27;;;;;;;5.97;4.30;;;13.50;73.60;;;;;;5043778;28;19948;-87
2022/11/12 06:17:30;;;;;;;6.63;5.05;;;13.60;73.70;;;;;;5040003;28;20035;-85
2022/11/12 06:20:34;;;;;;;6.95;4.30;;;13.50;73.60;;;;;;5049972;28;20788;-86
2022/11/12 06:23:37;;;;;;;4.80;3.83;;;13.50;73.60;;;;;;5045742;28;20055;-86
2022/11/12 06:26:40;;;;;;;5.82;4.70;;;13.60;73.70;;;;;;5045034;28;20043;-87
2022/11/12 06:29:43;;;;;;;6.00;4.72;;;13.60;73.80;;;;;;5041123;28;20065;-88
2022/11/12 06:32:48;;;;;;;5.97;4.50;;;13.60;73.80;;;;;;5045834;28;20095;-88
2022/11/12 06:36:02;;;;;;;5.85;4.32;;;13.60;73.80;;;;;;5046850;28;20637;-88
2022/11/12 06:39:06;;;;;;;6.00;5.38;;;13.60;73.80;;;;;;5040758;28;20048;-85
2022/11/12 06:42:09;;;;;;;;;;;13.60;73.80;;;;;;5039014;28;20059;-86
2022/11/12 06:45:13;;;;;;;8.10;4.88;;;13.60;73.70;;;;;;5046442;28;19955;-87
2022/11/12 06:48:16;;;;;;;5.85;5.10;;;13.70;73.90;;;;;;5035107;28;20060;-84
2022/11/12 06:51:20;;;;;;;6.97;5.07;;;13.70;73.80;;;;;;5044326;28;20036;-81
2022/11/12 06:54:23;;;;;;;7.10;5.50;;;13.70;73.90;;;;;;5045115;28;20039;-84
2022/11/12 06:57:27;;;;;;;7.20;6.50;;;13.70;74.00;;;;;;5046203;28;20051;-83
2022/11/12 07:00:30;;;;;;;6.45;5.85;;;13.80;74.20;;;;;;5039694;28;20075;-87
2022/11/12 07:03:33;;;;;;;7.78;6.45;;;13.80;74.30;;;;;;5036692;28;20063;-89
2022/11/12 07:06:36;;;;;;;;;;;13.80;74.30;;;;;;5036977;28;20499;-87
2022/11/12 07:09:39;;;;;;;8.90;6.93;;;13.80;74.30;;;;;;5042945;28;19920;-92
2022/11/12 07:12:43;;;;;;;11.82;7.85;;;13.80;74.20;;;;;;5044122;28;20043;-79
2022/11/12 07:15:46;;;;;;;10.13;7.93;;;13.90;74.60;;;;;;5043728;28;20039;-81
2022/11/12 07:18:50;;;;;;;9.25;7.93;;;13.90;74.60;;;;;;5044125;28;20113;-89
2022/11/12 07:21:53;;;;;;;8.63;6.93;;;13.90;74.80;;;;;;5051874;28;20518;-85
2022/11/12 07:24:56;;;;;;;9.40;8.10;;;13.90;75.00;;;;;;5044709;28;20072;-87
2022/11/12 07:27:59;;;;;;;10.63;8.38;;;14.00;75.30;;;;;;5035145;28;20048;-87
2022/11/12 07:31:08;;;;;;;9.43;8.30;;;14.00;75.50;;;;;;5021567;28;20087;-84
2022/11/12 07:34:11;;;;;;;10.23;8.13;;;14.00;75.60;;;;;;5032054;28;20067;-84
2022/11/12 07:37:15;;;;;;;9.90;8.63;;;14.10;75.80;;;;;;5043695;28;20120;-85
2022/11/12 07:40:18;;;;;;;;;;;14.10;75.90;;;;;;5042876;28;20273;-85
2022/11/12 07:43:21;;;;;;;10.30;9.10;;;14.10;75.80;;;;;;5043938;28;20304;-80
2022/11/12 07:46:26;;;;;;;13.18;10.60;;;14.10;75.70;;;;;;5044829;28;20071;-86
2022/11/12 07:49:30;;;;;;;12.50;9.13;;;14.20;76.10;;;;;;5044927;28;20056;-86
2022/11/12 07:52:33;;;;;;;14.15;9.45;;;14.30;76.30;;;;;;5040357;28;20088;-85
2022/11/12 07:55:36;;;;;;;10.02;9.02;;;14.40;76.50;;;;;;5033019;28;20099;-86
2022/11/12 07:58:39;;;;;;;11.30;8.90;;;14.60;76.70;;;;;;5043511;28;20098;-81
2022/11/12 08:01:44;;;;;;;9.90;8.90;;;14.60;76.50;;;;;;5026714;28;20060;-84
2022/11/12 08:04:47;;;;;;;12.55;8.88;;;14.60;76.40;;;;;;5044250;28;20860;-86
2022/11/12 08:07:51;;;;;;;10.73;9.63;;;14.60;76.30;;;;;;5040425;28;20298;-85
2022/11/12 08:10:58;;;;;;;;;;;14.60;76.30;;;;;;5039685;28;20142;-85
2022/11/12 08:14:01;;;;;;;9.75;8.70;;;14.60;76.20;;;;;;5044191;28;20394;-89
2022/11/12 08:17:05;;;;;;;10.70;9.68;;;14.70;76.20;;;;;;5030399;28;20087;-81
2022/11/12 08:20:08;;;;;;;10.75;8.77;;;14.70;76.20;;;;;;5023502;28;20053;-88
2022/11/12 08:23:12;;;;;;;12.55;11.10;;;14.70;76.40;;;;;;5043993;28;20638;-90
2022/11/12 08:26:17;;;;;;;19.20;11.75;;;14.70;76.60;;;;;;5045741;28;20082;-91
2022/11/12 08:29:22;;;;;;;12.05;9.57;;;14.90;77.20;;;;;;5043155;28;20048;-86
2022/11/12 08:32:25;;;;;;;13.20;9.90;;;15.00;77.40;;;;;;5037804;28;20400;-85
2022/11/12 08:35:29;;;;;;;;;;;15.10;77.60;;;;;;5039843;28;20519;-86
2022/11/12 08:38:32;;;;;;;10.40;9.45;;;15.20;77.60;;;;;;5040216;28;19967;-89
2022/11/12 08:41:36;;;;;;;11.75;9.13;;;15.30;77.50;;;;;;5039794;28;20045;-81
2022/11/12 08:44:39;;;;;;;11.95;9.65;;;15.40;77.70;;;;;;5034505;28;20052;-81
2022/11/12 08:47:43;;;;;;;11.57;9.82;;;15.40;77.80;;;;;;5043251;28;20136;-82
2022/11/12 08:50:46;;;;;;;13.85;11.23;;;15.60;78.20;;;;;;5032545;28;20094;-81
2022/11/12 08:53:49;;;;;;;12.68;10.68;;;15.60;78.10;;;;;;5035226;28;20036;-81
2022/11/12 08:56:52;;;;;;;11.50;10.35;;;15.70;78.20;;;;;;5042838;28;20044;-82
2022/11/12 08:59:55;;;;;;;12.15;9.73;;;15.80;78.30;;;;;;5049947;28;20044;-82
2022/11/12 09:02:59;;;;;;;10.25;9.10;;;15.80;78.20;;;;;;5044806;28;20130;-81
2022/11/12 09:06:04;;;;;;;11.18;10.07;;;15.90;78.30;;;;;;5038979;28;20075;-80
2022/11/12 09:09:08;;;;;;;9.88;9.02;;;15.90;78.30;;;;;;5033925;28;20087;-81
2022/11/12 09:12:17;;;;;;;11.38;9.30;;;15.90;78.30;;;;;;5044604;28;20062;-81
2022/11/12 09:15:22;;;;;;;11.15;9.13;;;16.00;78.40;;;;;;5040869;28;20179;-82
2022/11/12 09:18:25;;;;;;;11.10;9.68;;;16.00;78.40;;;;;;5045581;28;21355;-81
2022/11/12 09:21:29;;;;;;;10.63;9.63;;;16.10;78.50;;;;;;5049880;28;20586;-81
2022/11/12 09:24:32;;;;;;;10.65;9.73;;;16.20;78.50;;;;;;5049194;28;20053;-82
2022/11/12 09:27:35;;;;;;;10.65;9.63;;;16.20;78.20;;;;;;5045027;28;20044;-81
2022/11/12 09:30:45;;;;;;;10.95;9.23;;;16.30;78.20;;;;;;5043394;28;20051;-81
2022/11/12 09:33:48;;;;;;;14.63;11.10;;;16.40;78.10;;;;;;5042839;28;20067;-82
2022/11/12 09:36:51;;;;;;;11.57;9.95;;;16.40;78.00;;;;;;5044418;28;20302;-81
2022/11/12 09:39:54;;;;;;;10.88;9.63;;;16.40;77.80;;;;;;5037462;28;20040;-81
2022/11/12 09:42:57;;;;;;;11.50;9.80;;;16.50;78.00;;;;;;5034477;28;20067;-81
2022/11/12 09:46:21;;;;;;;;;;;16.50;78.00;;;;;;5033556;28;20060;-80
2022/11/12 09:49:33;;;;;;;9.82;8.88;;;16.50;77.90;;;;;;5037582;28;19967;-80
2022/11/12 09:52:42;;;;;;;11.15;9.10;;;16.50;77.80;;;;;;5043177;28;20047;-80
2022/11/12 09:55:48;;;;;;;12.00;9.90;;;16.50;77.80;;;;;;5033264;28;20071;-80
2022/11/12 09:58:53;;;;;;;11.18;10.00;;;16.50;77.80;;;;;;5032349;28;20520;-81
2022/11/12 10:02:05;;;;;;;9.15;8.25;;;16.50;77.70;;;;;;5043371;28;20059;-82
2022/11/12 10:05:26;;;;;;;10.45;8.57;;;16.60;77.80;;;;;;5044424;28;20052;-81
2022/11/12 10:08:50;;;;;;;11.57;8.40;;;16.60;77.60;;;;;;5029379;28;20032;-82
2022/11/12 10:12:31;;;;;;;12.85;9.43;;;16.80;77.60;;;;;;5035945;28;20180;-81
2022/11/12 10:19:38;;;;;;;11.20;9.13;;;17.10;77.10;;;;;;5042202;28;20040;-84
2022/11/12 10:22:44;;;;;;;9.23;8.33;;;17.30;76.70;;;;;;5046571;28;20040;-83
2022/11/12 10:25:51;;;;;;;10.05;9.15;;;17.40;76.50;;;;;;5034523;28;20629;-83
2022/11/12 10:29:09;;;;;;;10.82;9.38;;;17.50;76.40;;;;;;5046497;28;20132;-84
2022/11/12 10:32:14;;;;;;;9.68;8.77;;;17.50;76.10;;;;;;5041818;28;20356;-84
2022/11/12 10:35:19;;;;;;;9.30;8.40;;;17.50;76.00;;;;;;5046051;28;20526;-84
2022/11/12 10:38:26;;;;;;;9.95;8.38;;;17.40;75.70;;;;;;5041271;28;20086;-84
2022/11/12 10:41:32;;;;;;;9.20;8.27;;;17.40;75.70;;;;;;5030624;28;20246;-82
2022/11/12 10:44:37;;;;;;;9.52;8.60;;;17.30;75.60;;;;;;5037276;28;20596;-86
2022/11/12 10:47:41;;;;;;;8.52;7.78;;;17.30;75.70;;;;;;5035860;28;20099;-84
2022/11/12 10:50:45;;;;;;;10.38;9.30;;;17.30;75.70;;;;;;5040207;28;20039;-80
2022/11/12 10:53:48;;;;;;;12.80;8.68;;;17.30;75.70;;;;;;5046370;28;20121;-79
2022/11/12 10:56:52;;;;;;;7.97;7.18;;;17.30;75.70;;;;;;5045559;28;20148;-80
2022/11/12 11:00:15;;;;;;;8.63;7.70;;;17.30;75.70;;;;;;5043591;28;20052;-80
2022/11/12 11:03:24;;;;;;;9.23;7.53;;;17.40;76.00;;;;;;5040422;28;20052;-80
2022/11/12 11:06:28;;;;;;;7.97;6.90;;;17.50;76.10;;;;;;5043387;28;20055;-80
2022/11/12 11:09:32;;;;;;;;;;;17.60;76.20;;;;;;5045058;28;20085;-81
2022/11/12 11:12:35;;;;;;;9.60;7.20;;;17.70;76.20;;;;;;5046099;28;19967;-81
2022/11/12 11:15:39;;;;;;;6.88;6.22;;;17.80;76.30;;;;;;5052551;28;20047;-81
2022/11/12 11:18:51;;;;;;;7.00;6.35;;;17.80;76.10;;;;;;5037022;28;20538;-80
2022/11/12 11:22:08;;;;;;;7.35;6.55;;;17.90;76.20;;;;;;5036876;28;20075;-80
2022/11/12 11:25:26;;;;;;;7.03;5.88;;;18.00;76.20;;;;;;5030298;28;20146;-80
2022/11/12 11:28:42;;;;;;;7.55;6.00;;;18.10;76.20;;;;;;5036448;28;20048;-81
2022/11/12 11:32:06;;;;;;;6.35;5.78;;;18.20;76.20;;;;;;5043621;28;20444;-81
2022/11/12 11:35:37;;;;;;;6.60;5.88;;;18.30;76.10;;;;;;5039563;28;20056;-82
2022/11/12 11:38:58;;;;;;;6.28;5.43;;;18.40;76.20;;;;;;5041287;28;20087;-81
2022/11/12 11:42:16;;;;;;;6.43;5.82;;;18.40;76.00;;;;;;5040924;28;20090;-81
2022/11/12 11:45:47;;;;;;;5.75;5.25;;;18.50;76.10;;;;;;5040768;28;20111;-81
2022/11/12 11:49:20;;;;;;;6.30;5.63;;;18.60;76.20;;;;;;5044876;28;20051;-79
2022/11/12 11:52:42;;;;;;;4.70;4.30;;;18.60;76.10;;;;;;5035245;28;20087;-81
2022/11/12 11:55:49;;;;;;;6.10;5.47;;;18.70;76.10;;;;;;5033262;28;20470;-82
2022/11/12 11:59:15;;;;;;;5.65;5.00;;;18.80;76.20;;;;;;5043878;28;20130;-81
2022/11/12 12:02:31;;;;;;;5.57;4.55;;;18.90;76.20;;;;;;5044615;28;20448;-82
2022/11/12 12:05:38;;;;;;;7.22;4.82;;;19.00;76.20;;;;;;5034634;28;20047;-80
2022/11/12 12:08:54;;;;;;;8.18;5.90;;;19.00;76.00;;;;;;5031968;28;20079;-78
2022/11/12 12:12:36;;;;;;;5.40;4.57;;;19.10;76.00;;;;;;5042134;28;20066;-79
2022/11/12 12:16:07;;;;;;;6.00;5.18;;;19.20;76.00;;;;;;5039962;28;20114;-79
2022/11/12 12:19:22;;;;;;;6.20;4.35;;;19.20;75.90;;;;;;5043662;28;20155;-79
2022/11/12 12:22:43;;;;;;;4.65;4.22;;;19.30;76.00;;;;;;5029533;28;20123;-80
2022/11/12 12:25:49;;;;;;;4.55;4.15;;;19.40;76.00;;;;;;5036400;28;20480;-84
2022/11/12 12:29:09;;;;;;;4.10;3.78;;;19.40;75.80;;;;;;5038432;28;20099;-83
2022/11/12 12:32:31;;;;;;;5.80;4.10;;;19.50;75.80;;;;;;5043238;28;20075;-88
2022/11/12 12:35:41;;;;;;;6.82;4.22;;;19.60;75.90;;;;;;5044426;28;20508;-82
2022/11/12 12:38:50;;;;;;;4.95;4.55;;;19.60;75.80;;;;;;5041465;28;20040;-83
2022/11/12 12:41:58;;;;;;;5.65;4.43;;;19.60;75.60;;;;;;5043869;28;20102;-92
2022/11/12 12:45:40;;;;;;;5.43;4.00;;;19.50;75.30;;;;;;5033099;28;20128;-87
2022/11/12 12:48:45;;;;;;;5.43;4.28;;;19.50;75.30;;;;;;5041179;28;20112;-82
2022/11/12 12:51:49;;;;;;;6.53;4.20;;;19.50;75.50;;;;;;5034039;28;20155;-83
2022/11/12 12:54:51;;;;;;;5.95;4.72;;;19.50;75.70;;;;;;5041901;28;20056;-84
2022/11/12 12:57:58;;;;;;;6.20;5.03;;;19.60;76.00;;;;;;5034644;28;20043;-82
2022/11/12 13:01:22;;;;;;;5.65;4.30;;;19.70;76.20;;;;;;5044187;28;20083;-86
2022/11/12 13:04:50;;;;;;;4.72;4.15;;;19.80;76.30;;;;;;5049027;28;20270;-86
2022/11/12 13:07:58;;;;;;;8.50;5.00;;;20.00;76.50;;;;;;5044205;28;20068;-86
2022/11/12 13:11:01;;;;;;;11.18;5.63;;;20.10;76.50;;;;;;5047211;28;20063;-88
2022/11/12 13:14:30;;;;;;;8.77;6.50;;;20.20;76.60;;;;;;5050114;28;20044;-82
2022/11/12 13:17:48;;;;;;;9.95;7.07;;;20.40;77.20;;;;;;5052884;28;20107;-86
2022/11/12 13:21:17;;;;;;;13.30;11.15;;;20.50;77.50;;;;;;5033947;28;20041;-83
2022/11/12 13:24:58;;;;;;;11.05;9.88;;;20.60;78.00;;;;;;5045338;28;20511;-91
2022/11/12 13:28:01;;;;;;;9.38;8.38;;;20.70;78.30;;;;;;5028924;28;20029;-78
2022/11/12 13:31:25;;;;;;;8.63;7.53;;;20.80;78.20;;;;;;5039181;28;20196;-79
2022/11/12 13:34:32;;;;;;;8.95;7.75;;;20.90;78.40;;;;;;5043495;28;20040;-79
2022/11/12 13:37:44;;;;;;;7.88;6.60;;;20.90;78.30;;;;;;5041928;28;20036;-77
2022/11/12 13:41:05;;;;;;;7.93;6.00;;;21.00;78.30;;;;;;5039615;28;20052;-85
2022/11/12 13:44:14;;;;;;;8.93;5.78;;;21.00;78.20;;;;;;5046566;28;20470;-82
2022/11/12 13:47:23;;;;;;;7.35;5.82;;;21.00;78.10;;;;;;5040214;28;20055;-82
2022/11/12 13:50:26;;;;;;;6.10;5.07;;;21.00;78.10;;;;;;5047355;28;20098;-78
2022/11/12 13:53:31;;;;;;;5.72;4.38;;;21.00;78.00;;;;;;5045523;28;20082;-77
2022/11/12 13:56:35;;;;;;;10.45;4.22;;;21.10;78.10;;;;;;5046608;28;20090;-78
2022/11/12 13:59:39;;;;;;;5.32;4.80;;;21.10;78.60;;;;;;5046184;28;20032;-80
2022/11/12 14:02:45;;;;;;;7.55;4.60;;;21.00;77.80;;;;;;5046543;28;20040;-80
2022/11/12 14:05:49;;;;;;;5.75;4.15;;;21.00;78.30;;;;;;5037197;28;20044;-79
2022/11/12 14:08:57;;;;;;;6.80;3.75;;;21.00;77.80;;;;;;5030912;28;20150;-84
2022/11/12 14:12:22;;;;;;;6.53;4.20;;;21.00;77.70;;;;;;5036051;28;20072;-88
2022/11/12 14:15:40;;;;;;;5.25;3.63;;;21.00;77.60;;;;;;5035769;28;20446;-82
2022/11/12 14:19:21;;;;;;;5.93;4.00;;;21.00;77.50;;;;;;5039230;28;20484;-85
2022/11/12 14:22:34;;;;;;;6.30;3.83;;;20.90;77.20;;;;;;5033295;28;20124;-86
2022/11/12 14:25:46;;;;;;;5.18;3.97;;;20.80;77.20;;;;;;5046732;28;20039;-89
2022/11/12 14:28:55;;;;;;;7.90;3.53;;;20.90;77.50;;;;;;5039971;28;20083;-85
2022/11/12 14:32:01;;;;;;;6.90;3.78;;;20.90;77.60;;;;;;5040298;28;20255;-89
2022/11/12 14:35:23;;;;;;;4.10;3.50;;;20.90;77.50;;;;;;5047129;28;20048;-83
2022/11/12 14:38:32;;;;;;;7.00;3.33;;;20.90;77.50;;;;;;5054698;28;20095;-84
2022/11/12 14:41:41;;;;;;;5.95;3.90;;;20.90;77.50;;;;;;5048703;28;20511;-87
2022/11/12 14:44:44;;;;;;;5.70;3.58;;;20.90;77.40;;;;;;5050362;28;20127;-89
2022/11/12 14:47:52;;;;;;;5.72;3.70;;;20.90;77.30;;;;;;5056389;28;20063;-81
2022/11/12 14:51:03;;;;;;;5.50;4.75;;;20.90;77.20;;;;;;5047464;28;20031;-92
2022/11/12 14:54:15;;;;;;;8.38;4.53;;;20.90;77.20;;;;;;5055552;28;20187;-85
2022/11/12 14:57:25;;;;;;;5.55;4.47;;;20.90;77.20;;;;;;5050057;28;20094;-91
2022/11/12 15:00:31;;;;;;;6.15;4.03;;;20.90;77.20;;;;;;5058710;28;20519;-86
2022/11/12 15:03:35;;;;;;;5.30;4.10;;;20.90;77.20;;;;;;5053815;28;20511;-86
2022/11/12 15:06:38;;;;;;;6.38;4.22;;;20.90;77.30;;;;;;5034420;28;20454;-88
2022/11/12 15:09:41;;;;;;;;;;;20.90;77.80;;;;;;5046236;28;20112;-88
2022/11/12 15:12:44;;;;;;;8.93;4.47;;;20.90;77.30;;;;;;5043714;28;19951;-90
2022/11/12 15:16:00;;;;;;;7.13;4.10;;;20.90;77.80;;;;;;5046073;28;20070;-86
2022/11/12 15:19:14;;;;;;;6.53;4.18;;;20.90;77.30;;;;;;5037882;28;20091;-88
2022/11/12 15:22:21;;;;;;;4.20;3.35;;;20.90;77.30;;;;;;5034504;28;20460;-84
2022/11/12 15:25:29;;;;;;;4.97;3.58;;;20.80;77.00;;;;;;5043800;28;20511;-82
2022/11/12 15:28:33;;;;;;;5.18;3.97;;;20.80;77.10;;;;;;5049310;28;20113;-84
2022/11/12 15:31:46;;;;;;;5.68;3.95;;;20.80;77.20;;;;;;5047135;28;20036;-81
2022/11/12 15:34:51;;;;;;;8.15;4.25;;;20.70;77.20;;;;;;5038393;28;20106;-86
2022/11/12 15:37:54;;;;;;;6.43;4.50;;;20.60;77.30;;;;;;5047256;28;20048;-82
2022/11/12 15:40:58;;;;;;;5.82;4.10;;;20.60;77.50;;;;;;5048443;28;20523;-78
2022/11/12 15:44:02;;;;;;;4.95;4.05;;;20.50;77.40;;;;;;5066227;28;20036;-81
2022/11/12 15:47:14;;;;;;;5.75;3.80;;;20.60;77.50;;;;;;5062491;28;20168;-80
2022/11/12 15:50:21;;;;;;;9.40;4.45;;;20.60;77.50;;;;;;5063073;28;20044;-87
2022/11/12 15:53:24;;;;;;;5.85;3.70;;;20.60;77.50;;;;;;5068072;28;20039;-83
2022/11/12 15:56:29;;;;;;;4.90;3.60;;;20.60;77.40;;;;;;5052704;28;20657;-77
2022/11/12 15:59:31;;;;;;;5.03;3.28;;;20.50;77.30;;;;;;5050304;28;20539;-81
2022/11/12 16:02:35;;;;;;;4.15;3.10;;;20.40;77.20;;;;;;5041298;28;20094;-85
2022/11/12 16:05:38;;;;;;;;;;;20.30;77.10;;;;;;5030976;28;20403;-85
2022/11/12 16:08:41;;;;;;;6.20;2.80;;;20.30;77.40;;;;;;5030317;28;20002;-83
2022/11/12 16:11:56;;;;;;;5.53;3.00;;;20.20;77.40;;;;;;5031579;28;20040;-83
2022/11/12 16:15:00;;;;;;;3.47;3.10;;;20.10;77.30;;;;;;5044202;28;20450;-85
2022/11/12 16:18:04;;;;;;;4.75;3.53;;;20.00;77.30;;;;;;5039810;28;20047;-86
2022/11/12 16:21:08;;;;;;;5.68;3.33;;;19.90;77.30;;;;;;5041216;28;20089;-86
2022/11/12 16:24:12;;;;;;;3.40;2.78;;;19.90;77.50;;;;;;5044443;28;21286;-84
2022/11/12 16:27:16;;;;;;;4.72;3.40;;;19.80;77.40;;;;;;5043114;28;20499;-85
2022/11/12 16:30:23;;;;;;;3.97;3.13;;;19.80;77.50;;;;;;5034580;28;20052;-88
2022/11/12 16:33:26;;;;;;;6.45;3.05;;;19.70;77.50;;;;;;5031786;28;20088;-85
2022/11/12 16:36:29;;;;;;;5.07;3.00;;;19.60;77.50;;;;;;5034125;28;20059;-87
2022/11/12 16:39:32;;;;;;;4.45;2.80;;;19.50;77.40;;;;;;5046162;28;20036;-82
2022/11/12 16:42:35;;;;;;;2.90;2.50;;;19.50;77.60;;;;;;5031230;28;20040;-85
2022/11/12 16:45:40;;;;;;;4.40;3.28;;;19.40;77.50;;;;;;5043328;28;20574;-84
2022/11/12 16:48:43;;;;;;;4.88;3.30;;;19.30;77.50;;;;;;5043820;28;20090;-83